sensor_id;sensor_type;location;lat;lon;timestamp;pressure;altitude;pressure_sealevel;temperature;humidity
45129;BME280;35512;56.312;101.728;2023-05-12T00:00:06;95343.97;;;7.83;27.72
45129;BME280;35512;56.312;101.728;2023-05-12T00:02:40;95345.13;;;7.85;26.87
45129;BME280;35512;56.312;101.728;2023-05-12T00:05:12;95341.31;;;7.86;26.89
45129;BME280;35512;56.312;101.728;2023-05-12T00:07:41;95343.63;;;7.88;27.68
45129;BME280;35512;56.312;101.728;2023-05-12T00:10:10;95340.94;;;7.88;27.46
45129;BME280;35512;56.312;101.728;2023-05-12T00:12:39;95335.25;;;7.97;27.37
45129;BME280;35512;56.312;101.728;2023-05-12T00:15:08;95327.25;;;8.04;27.68
45129;BME280;35512;56.312;101.728;2023-05-12T00:17:37;95328.03;;;8.08;27.00
45129;BME280;35512;56.312;101.728;2023-05-12T00:20:07;95321.53;;;8.12;27.54
45129;BME280;35512;56.312;101.728;2023-05-12T00:22:36;95315.78;;;8.10;27.87
45129;BME280;35512;56.312;101.728;2023-05-12T00:25:04;95323.09;;;8.10;27.96
45129;BME280;35512;56.312;101.728;2023-05-12T00:27:34;95318.47;;;8.10;27.39
45129;BME280;35512;56.312;101.728;2023-05-12T00:30:03;95310.78;;;8.09;28.05
45129;BME280;35512;56.312;101.728;2023-05-12T00:32:35;95304.91;;;7.96;27.59
45129;BME280;35512;56.312;101.728;2023-05-12T00:35:05;95307.59;;;7.96;27.56
45129;BME280;35512;56.312;101.728;2023-05-12T00:37:34;95302.56;;;7.91;28.01
45129;BME280;35512;56.312;101.728;2023-05-12T00:40:03;95295.66;;;7.90;28.09
45129;BME280;35512;56.312;101.728;2023-05-12T00:42:34;95289.13;;;7.91;28.48
45129;BME280;35512;56.312;101.728;2023-05-12T00:45:04;95291.47;;;7.96;28.54
45129;BME280;35512;56.312;101.728;2023-05-12T00:47:33;95291.19;;;8.12;27.83
45129;BME280;35512;56.312;101.728;2023-05-12T00:50:05;95295.91;;;8.26;27.99
45129;BME280;35512;56.312;101.728;2023-05-12T00:52:35;95286.34;;;8.32;27.90
45129;BME280;35512;56.312;101.728;2023-05-12T00:55:04;95278.25;;;8.28;27.94
45129;BME280;35512;56.312;101.728;2023-05-12T00:57:34;95284.41;;;8.33;28.44
45129;BME280;35512;56.312;101.728;2023-05-12T01:00:03;95282.09;;;8.31;28.03
45129;BME280;35512;56.312;101.728;2023-05-12T01:02:36;95270.97;;;8.29;27.80
45129;BME280;35512;56.312;101.728;2023-05-12T01:05:05;95269.78;;;8.30;28.53
45129;BME280;35512;56.312;101.728;2023-05-12T01:07:38;95257.50;;;8.33;28.26
45129;BME280;35512;56.312;101.728;2023-05-12T01:10:18;95268.78;;;8.49;28.27
45129;BME280;35512;56.312;101.728;2023-05-12T01:12:47;95268.09;;;8.63;28.50
45129;BME280;35512;56.312;101.728;2023-05-12T01:15:17;95263.13;;;8.76;28.32
45129;BME280;35512;56.312;101.728;2023-05-12T01:17:54;95272.75;;;8.80;28.16
45129;BME280;35512;56.312;101.728;2023-05-12T01:20:25;95264.72;;;8.91;28.41
45129;BME280;35512;56.312;101.728;2023-05-12T01:22:56;95264.78;;;8.99;28.60
45129;BME280;35512;56.312;101.728;2023-05-12T01:25:31;95267.47;;;8.99;28.62
45129;BME280;35512;56.312;101.728;2023-05-12T01:28:02;95264.81;;;9.09;28.83
45129;BME280;35512;56.312;101.728;2023-05-12T01:30:32;95252.06;;;8.99;28.80
45129;BME280;35512;56.312;101.728;2023-05-12T01:33:02;95253.22;;;9.02;28.87
45129;BME280;35512;56.312;101.728;2023-05-12T01:35:31;95249.41;;;9.10;28.76
45129;BME280;35512;56.312;101.728;2023-05-12T01:38:01;95247.88;;;9.20;28.49
45129;BME280;35512;56.312;101.728;2023-05-12T01:40:32;95244.03;;;9.13;28.91
45129;BME280;35512;56.312;101.728;2023-05-12T01:43:01;95247.09;;;9.16;29.21
45129;BME280;35512;56.312;101.728;2023-05-12T01:45:33;95232.09;;;9.14;29.19
45129;BME280;35512;56.312;101.728;2023-05-12T01:48:03;95231.75;;;9.34;28.81
45129;BME280;35512;56.312;101.728;2023-05-12T01:50:32;95222.91;;;9.41;28.92
45129;BME280;35512;56.312;101.728;2023-05-12T01:53:03;95226.38;;;9.45;28.74
45129;BME280;35512;56.312;101.728;2023-05-12T01:55:32;95219.41;;;9.29;29.38
45129;BME280;35512;56.312;101.728;2023-05-12T01:58:02;95213.28;;;9.22;29.32
45129;BME280;35512;56.312;101.728;2023-05-12T02:00:32;95215.97;;;9.36;29.37
45129;BME280;35512;56.312;101.728;2023-05-12T02:03:02;95217.91;;;9.43;29.74
45129;BME280;35512;56.312;101.728;2023-05-12T02:05:32;95217.53;;;9.55;29.77
45129;BME280;35512;56.312;101.728;2023-05-12T02:08:03;95201.31;;;9.95;29.08
45129;BME280;35512;56.312;101.728;2023-05-12T02:10:32;95194.63;;;10.54;28.97
45129;BME280;35512;56.312;101.728;2023-05-12T02:13:01;95197.88;;;11.01;28.63
45129;BME280;35512;56.312;101.728;2023-05-12T02:15:32;95203.09;;;11.33;28.08
45129;BME280;35512;56.312;101.728;2023-05-12T02:18:02;95194.91;;;11.48;27.92
45129;BME280;35512;56.312;101.728;2023-05-12T02:20:32;95188.78;;;11.37;27.64
45129;BME280;35512;56.312;101.728;2023-05-12T02:23:02;95189.66;;;11.23;27.95
45129;BME280;35512;56.312;101.728;2023-05-12T02:25:33;95185.72;;;11.35;27.78
45129;BME280;35512;56.312;101.728;2023-05-12T02:28:02;95185.06;;;11.20;27.78
45129;BME280;35512;56.312;101.728;2023-05-12T02:30:33;95190.25;;;10.85;28.13
45129;BME280;35512;56.312;101.728;2023-05-12T02:33:03;95180.25;;;10.82;28.15
45129;BME280;35512;56.312;101.728;2023-05-12T02:35:35;95179.91;;;10.73;28.46
45129;BME280;35512;56.312;101.728;2023-05-12T02:38:04;95170.94;;;10.90;28.13
45129;BME280;35512;56.312;101.728;2023-05-12T02:40:33;95159.09;;;10.73;28.22
45129;BME280;35512;56.312;101.728;2023-05-12T02:43:02;95161.44;;;10.64;28.51
45129;BME280;35512;56.312;101.728;2023-05-12T02:45:31;95156.03;;;10.64;28.46
45129;BME280;35512;56.312;101.728;2023-05-12T02:48:02;95159.16;;;10.59;28.62
45129;BME280;35512;56.312;101.728;2023-05-12T02:50:31;95147.44;;;10.87;28.42
45129;BME280;35512;56.312;101.728;2023-05-12T02:53:00;95152.81;;;11.43;28.38
45129;BME280;35512;56.312;101.728;2023-05-12T02:55:29;95145.59;;;11.75;27.86
45129;BME280;35512;56.312;101.728;2023-05-12T02:57:58;95150.50;;;11.87;27.84
45129;BME280;35512;56.312;101.728;2023-05-12T03:00:28;95140.66;;;11.66;27.73
45129;BME280;35512;56.312;101.728;2023-05-12T03:02:58;95139.78;;;11.31;28.00
45129;BME280;35512;56.312;101.728;2023-05-12T03:05:27;95138.06;;;11.06;28.13
45129;BME280;35512;56.312;101.728;2023-05-12T03:07:57;95128.13;;;10.89;28.22
45129;BME280;35512;56.312;101.728;2023-05-12T03:10:26;95112.84;;;10.68;28.55
45129;BME280;35512;56.312;101.728;2023-05-12T03:12:56;95109.03;;;10.54;28.54
45129;BME280;35512;56.312;101.728;2023-05-12T03:15:25;95106.81;;;10.38;28.64
45129;BME280;35512;56.312;101.728;2023-05-12T03:17:54;95110.59;;;10.48;29.05
45129;BME280;35512;56.312;101.728;2023-05-12T03:20:23;95105.91;;;10.63;28.79
45129;BME280;35512;56.312;101.728;2023-05-12T03:22:53;95106.53;;;10.85;28.84
45129;BME280;35512;56.312;101.728;2023-05-12T03:25:22;95099.50;;;10.98;28.69
45129;BME280;35512;56.312;101.728;2023-05-12T03:27:50;95103.19;;;11.23;28.51
45129;BME280;35512;56.312;101.728;2023-05-12T03:30:20;95106.13;;;11.39;28.57
45129;BME280;35512;56.312;101.728;2023-05-12T03:32:49;95103.59;;;11.21;28.63
45129;BME280;35512;56.312;101.728;2023-05-12T03:35:18;95097.25;;;10.90;29.03
45129;BME280;35512;56.312;101.728;2023-05-12T03:37:47;95103.56;;;10.69;29.08
45129;BME280;35512;56.312;101.728;2023-05-12T03:40:16;95096.00;;;10.38;29.58
45129;BME280;35512;56.312;101.728;2023-05-12T03:42:47;95096.03;;;10.24;30.18
45129;BME280;35512;56.312;101.728;2023-05-12T03:45:18;95090.72;;;10.06;29.79
45129;BME280;35512;56.312;101.728;2023-05-12T03:47:48;95088.06;;;10.02;30.17
45129;BME280;35512;56.312;101.728;2023-05-12T03:50:17;95085.31;;;10.06;30.33
45129;BME280;35512;56.312;101.728;2023-05-12T03:52:47;95079.22;;;9.98;30.55
45129;BME280;35512;56.312;101.728;2023-05-12T03:55:16;95083.06;;;9.93;30.94
45129;BME280;35512;56.312;101.728;2023-05-12T03:57:46;95065.34;;;9.92;31.00
45129;BME280;35512;56.312;101.728;2023-05-12T04:00:19;95063.81;;;9.88;31.01
45129;BME280;35512;56.312;101.728;2023-05-12T04:02:49;95060.72;;;9.89;31.35
45129;BME280;35512;56.312;101.728;2023-05-12T04:05:19;95056.13;;;9.86;31.55
45129;BME280;35512;56.312;101.728;2023-05-12T04:07:48;95052.63;;;9.89;31.83
45129;BME280;35512;56.312;101.728;2023-05-12T04:10:17;95053.44;;;9.90;31.87
45129;BME280;35512;56.312;101.728;2023-05-12T04:12:47;95055.00;;;9.73;32.04
45129;BME280;35512;56.312;101.728;2023-05-12T04:15:16;95051.56;;;9.65;32.07
45129;BME280;35512;56.312;101.728;2023-05-12T04:17:46;95056.59;;;9.52;31.91
45129;BME280;35512;56.312;101.728;2023-05-12T04:20:15;95048.53;;;9.38;32.23
45129;BME280;35512;56.312;101.728;2023-05-12T04:22:44;95046.63;;;9.20;32.46
45129;BME280;35512;56.312;101.728;2023-05-12T04:25:15;95049.34;;;9.06;33.08
45129;BME280;35512;56.312;101.728;2023-05-12T04:27:43;95045.91;;;8.94;33.58
45129;BME280;35512;56.312;101.728;2023-05-12T04:30:13;95057.44;;;8.84;33.57
45129;BME280;35512;56.312;101.728;2023-05-12T04:32:43;95042.81;;;8.74;34.17
45129;BME280;35512;56.312;101.728;2023-05-12T04:35:12;95037.41;;;8.71;34.64
45129;BME280;35512;56.312;101.728;2023-05-12T04:37:41;95037.03;;;8.72;35.53
45129;BME280;35512;56.312;101.728;2023-05-12T04:40:10;95023.19;;;8.74;34.64
45129;BME280;35512;56.312;101.728;2023-05-12T04:42:39;95016.66;;;8.89;35.66
45129;BME280;35512;56.312;101.728;2023-05-12T04:45:10;95013.56;;;9.09;34.99
45129;BME280;35512;56.312;101.728;2023-05-12T04:47:39;94989.22;;;9.48;35.20
45129;BME280;35512;56.312;101.728;2023-05-12T04:50:08;94999.34;;;10.19;34.28
45129;BME280;35512;56.312;101.728;2023-05-12T04:52:38;95008.19;;;10.82;33.88
45129;BME280;35512;56.312;101.728;2023-05-12T04:55:07;95000.94;;;11.18;33.50
45129;BME280;35512;56.312;101.728;2023-05-12T04:57:37;95002.00;;;11.27;33.41
45129;BME280;35512;56.312;101.728;2023-05-12T05:00:11;94992.69;;;11.32;33.34
45129;BME280;35512;56.312;101.728;2023-05-12T05:02:42;94991.78;;;11.46;33.49
45129;BME280;35512;56.312;101.728;2023-05-12T05:05:11;94995.81;;;11.65;33.10
45129;BME280;35512;56.312;101.728;2023-05-12T05:07:40;94989.06;;;11.46;33.10
45129;BME280;35512;56.312;101.728;2023-05-12T05:10:09;94985.66;;;11.38;33.19
45129;BME280;35512;56.312;101.728;2023-05-12T05:12:40;94987.25;;;11.36;32.98
45129;BME280;35512;56.312;101.728;2023-05-12T05:15:11;94981.66;;;11.15;33.07
45129;BME280;35512;56.312;101.728;2023-05-12T05:17:40;94968.69;;;10.99;33.28
45129;BME280;35512;56.312;101.728;2023-05-12T05:20:11;94968.31;;;10.97;33.25
45129;BME280;35512;56.312;101.728;2023-05-12T05:22:43;94957.97;;;10.92;34.13
45129;BME280;35512;56.312;101.728;2023-05-12T05:25:11;94962.56;;;10.95;34.74
45129;BME280;35512;56.312;101.728;2023-05-12T05:27:41;94953.13;;;11.11;34.83
45129;BME280;35512;56.312;101.728;2023-05-12T05:30:10;94959.44;;;11.39;34.88
45129;BME280;35512;56.312;101.728;2023-05-12T05:32:41;94961.22;;;11.49;34.88
45129;BME280;35512;56.312;101.728;2023-05-12T05:35:10;94956.94;;;11.17;34.92
45129;BME280;35512;56.312;101.728;2023-05-12T05:37:46;94956.72;;;10.55;36.13
45129;BME280;35512;56.312;101.728;2023-05-12T05:40:15;94954.66;;;10.18;37.10
45129;BME280;35512;56.312;101.728;2023-05-12T05:42:44;94964.63;;;10.24;36.91
45129;BME280;35512;56.312;101.728;2023-05-12T05:45:13;94955.69;;;10.38;36.86
45129;BME280;35512;56.312;101.728;2023-05-12T05:47:42;94949.47;;;10.48;36.50
45129;BME280;35512;56.312;101.728;2023-05-12T05:50:11;94942.09;;;10.53;36.47
45129;BME280;35512;56.312;101.728;2023-05-12T05:52:42;94935.25;;;10.41;36.41
45129;BME280;35512;56.312;101.728;2023-05-12T05:55:11;94927.16;;;10.41;36.90
45129;BME280;35512;56.312;101.728;2023-05-12T05:57:40;94934.41;;;10.47;37.11
45129;BME280;35512;56.312;101.728;2023-05-12T06:00:09;94937.88;;;10.48;37.11
45129;BME280;35512;56.312;101.728;2023-05-12T06:02:43;94937.97;;;10.34;37.12
45129;BME280;35512;56.312;101.728;2023-05-12T06:05:17;94951.13;;;10.24;36.73
45129;BME280;35512;56.312;101.728;2023-05-12T06:07:47;94939.59;;;10.20;36.84
45129;BME280;35512;56.312;101.728;2023-05-12T06:10:15;94936.13;;;10.20;37.04
45129;BME280;35512;56.312;101.728;2023-05-12T06:12:46;94933.34;;;10.34;36.60
45129;BME280;35512;56.312;101.728;2023-05-12T06:15:15;94943.75;;;10.39;36.40
45129;BME280;35512;56.312;101.728;2023-05-12T06:17:44;94934.16;;;10.27;36.36
45129;BME280;35512;56.312;101.728;2023-05-12T06:20:13;94935.66;;;10.32;36.25
45129;BME280;35512;56.312;101.728;2023-05-12T06:22:42;94938.69;;;10.41;36.18
45129;BME280;35512;56.312;101.728;2023-05-12T06:25:11;94934.75;;;10.53;35.79
45129;BME280;35512;56.312;101.728;2023-05-12T06:27:40;94938.53;;;10.63;35.70
45129;BME280;35512;56.312;101.728;2023-05-12T06:30:09;94936.25;;;10.58;35.67
45129;BME280;35512;56.312;101.728;2023-05-12T06:32:42;94931.78;;;10.33;36.14
45129;BME280;35512;56.312;101.728;2023-05-12T06:35:11;94915.75;;;10.11;36.25
45129;BME280;35512;56.312;101.728;2023-05-12T06:37:40;94918.84;;;10.13;36.48
45129;BME280;35512;56.312;101.728;2023-05-12T06:40:14;94921.53;;;10.13;36.51
45129;BME280;35512;56.312;101.728;2023-05-12T06:42:44;94919.50;;;10.25;36.23
45129;BME280;35512;56.312;101.728;2023-05-12T06:45:19;94916.34;;;10.41;36.04
45129;BME280;35512;56.312;101.728;2023-05-12T06:47:51;94919.31;;;10.57;36.25
45129;BME280;35512;56.312;101.728;2023-05-12T06:50:20;94906.13;;;10.67;36.36
45129;BME280;35512;56.312;101.728;2023-05-12T06:52:52;94908.84;;;10.63;36.38
45129;BME280;35512;56.312;101.728;2023-05-12T06:55:21;94904.25;;;10.60;36.20
45129;BME280;35512;56.312;101.728;2023-05-12T06:57:50;94921.19;;;10.64;36.64
45129;BME280;35512;56.312;101.728;2023-05-12T07:00:26;94912.75;;;10.55;36.78
45129;BME280;35512;56.312;101.728;2023-05-12T07:02:56;94907.38;;;10.51;37.07
45129;BME280;35512;56.312;101.728;2023-05-12T07:05:25;94905.56;;;10.37;37.37
45129;BME280;35512;56.312;101.728;2023-05-12T07:07:54;94910.66;;;10.24;37.80
45129;BME280;35512;56.312;101.728;2023-05-12T07:10:23;94909.53;;;10.18;37.78
45129;BME280;35512;56.312;101.728;2023-05-12T07:12:52;94896.03;;;10.25;38.52
45129;BME280;35512;56.312;101.728;2023-05-12T07:15:20;94886.72;;;10.34;38.10
45129;BME280;35512;56.312;101.728;2023-05-12T07:17:50;94872.78;;;10.42;38.06
45129;BME280;35512;56.312;101.728;2023-05-12T07:20:19;94882.75;;;10.45;38.39
45129;BME280;35512;56.312;101.728;2023-05-12T07:22:48;94883.28;;;10.29;39.26
45129;BME280;35512;56.312;101.728;2023-05-12T07:25:19;94879.66;;;9.98;40.14
45129;BME280;35512;56.312;101.728;2023-05-12T07:27:49;94882.41;;;9.84;39.95
45129;BME280;35512;56.312;101.728;2023-05-12T07:30:18;94890.53;;;9.80;40.35
45129;BME280;35512;56.312;101.728;2023-05-12T07:32:49;94885.16;;;9.76;40.99
45129;BME280;35512;56.312;101.728;2023-05-12T07:35:23;94888.94;;;9.90;40.89
45129;BME280;35512;56.312;101.728;2023-05-12T07:37:52;94890.38;;;10.02;40.47
45129;BME280;35512;56.312;101.728;2023-05-12T07:40:20;94888.38;;;10.17;39.91
45129;BME280;35512;56.312;101.728;2023-05-12T07:42:49;94895.31;;;10.14;39.89
45129;BME280;35512;56.312;101.728;2023-05-12T07:45:19;94879.09;;;10.21;39.89
45129;BME280;35512;56.312;101.728;2023-05-12T07:47:51;94889.19;;;10.10;40.12
45129;BME280;35512;56.312;101.728;2023-05-12T07:50:20;94896.94;;;10.04;40.30
45129;BME280;35512;56.312;101.728;2023-05-12T07:52:50;94894.63;;;10.03;41.01
45129;BME280;35512;56.312;101.728;2023-05-12T07:55:20;94900.84;;;9.96;40.48
45129;BME280;35512;56.312;101.728;2023-05-12T07:57:50;94899.59;;;10.08;40.48
45129;BME280;35512;56.312;101.728;2023-05-12T08:00:20;94907.97;;;10.21;40.11
45129;BME280;35512;56.312;101.728;2023-05-12T08:02:49;94926.03;;;10.31;39.97
45129;BME280;35512;56.312;101.728;2023-05-12T08:05:19;94932.69;;;10.15;39.98
45129;BME280;35512;56.312;101.728;2023-05-12T08:07:48;94932.91;;;9.76;40.15
45129;BME280;35512;56.312;101.728;2023-05-12T08:10:18;94927.34;;;9.30;41.04
45129;BME280;35512;56.312;101.728;2023-05-12T08:12:47;94921.66;;;8.96;41.25
45129;BME280;35512;56.312;101.728;2023-05-12T08:15:15;94906.69;;;8.77;41.25
45129;BME280;35512;56.312;101.728;2023-05-12T08:17:45;94887.09;;;8.55;41.93
45129;BME280;35512;56.312;101.728;2023-05-12T08:20:14;94894.81;;;8.49;42.21
45129;BME280;35512;56.312;101.728;2023-05-12T08:22:43;94898.63;;;8.41;42.12
45129;BME280;35512;56.312;101.728;2023-05-12T08:25:12;94894.44;;;8.47;42.13
45129;BME280;35512;56.312;101.728;2023-05-12T08:27:41;94905.19;;;8.65;42.29
45129;BME280;35512;56.312;101.728;2023-05-12T08:30:12;94905.50;;;8.92;42.58
45129;BME280;35512;56.312;101.728;2023-05-12T08:32:41;94902.69;;;9.36;42.78
45129;BME280;35512;56.312;101.728;2023-05-12T08:35:10;94914.25;;;10.03;42.70
45129;BME280;35512;56.312;101.728;2023-05-12T08:37:40;94904.25;;;10.56;42.61
45129;BME280;35512;56.312;101.728;2023-05-12T08:40:14;94913.91;;;10.99;42.43
45129;BME280;35512;56.312;101.728;2023-05-12T08:43:06;94911.38;;;11.19;42.88
45129;BME280;35512;56.312;101.728;2023-05-12T08:45:36;94916.66;;;11.30;42.71
45129;BME280;35512;56.312;101.728;2023-05-12T08:48:08;94914.69;;;11.34;42.63
45129;BME280;35512;56.312;101.728;2023-05-12T08:50:37;94913.53;;;11.31;43.15
45129;BME280;35512;56.312;101.728;2023-05-12T08:53:10;94910.94;;;11.24;43.41
45129;BME280;35512;56.312;101.728;2023-05-12T08:55:43;94909.34;;;11.30;43.63
45129;BME280;35512;56.312;101.728;2023-05-12T08:58:33;94916.63;;;11.33;43.38
45129;BME280;35512;56.312;101.728;2023-05-12T09:01:10;94915.25;;;11.18;43.42
45129;BME280;35512;56.312;101.728;2023-05-12T09:03:42;94918.09;;;11.04;44.08
45129;BME280;35512;56.312;101.728;2023-05-12T09:06:12;94901.78;;;10.76;44.09
45129;BME280;35512;56.312;101.728;2023-05-12T09:08:41;94908.81;;;10.67;44.16
45129;BME280;35512;56.312;101.728;2023-05-12T09:11:11;94912.66;;;10.65;44.60
45129;BME280;35512;56.312;101.728;2023-05-12T09:16:30;94892.38;;;10.50;45.16
45129;BME280;35512;56.312;101.728;2023-05-12T09:19:01;94901.13;;;10.65;45.90
45129;BME280;35512;56.312;101.728;2023-05-12T09:21:33;94902.47;;;10.84;45.92
45129;BME280;35512;56.312;101.728;2023-05-12T09:24:05;94897.53;;;11.13;45.80
45129;BME280;35512;56.312;101.728;2023-05-12T09:26:48;94899.19;;;11.38;45.80
45129;BME280;35512;56.312;101.728;2023-05-12T09:29:18;94901.94;;;11.65;45.23
45129;BME280;35512;56.312;101.728;2023-05-12T09:32:00;94911.81;;;11.79;45.33
45129;BME280;35512;56.312;101.728;2023-05-12T09:34:32;94914.84;;;11.85;44.93
45129;BME280;35512;56.312;101.728;2023-05-12T09:37:04;94909.34;;;11.89;45.04
45129;BME280;35512;56.312;101.728;2023-05-12T09:39:34;94908.00;;;11.77;45.34
45129;BME280;35512;56.312;101.728;2023-05-12T09:42:10;94913.16;;;11.64;45.46
45129;BME280;35512;56.312;101.728;2023-05-12T09:44:40;94917.81;;;11.63;45.34
45129;BME280;35512;56.312;101.728;2023-05-12T09:47:09;94926.41;;;11.55;45.24
45129;BME280;35512;56.312;101.728;2023-05-12T09:49:45;94929.59;;;11.46;45.49
45129;BME280;35512;56.312;101.728;2023-05-12T09:52:14;94929.41;;;11.29;45.23
45129;BME280;35512;56.312;101.728;2023-05-12T09:54:43;94917.66;;;11.09;45.69
45129;BME280;35512;56.312;101.728;2023-05-12T09:57:14;94920.56;;;10.87;45.78
45129;BME280;35512;56.312;101.728;2023-05-12T09:59:44;94911.47;;;10.70;46.00
45129;BME280;35512;56.312;101.728;2023-05-12T10:02:15;94910.41;;;10.60;46.27
45129;BME280;35512;56.312;101.728;2023-05-12T10:04:58;94915.78;;;10.60;46.44
45129;BME280;35512;56.312;101.728;2023-05-12T10:07:31;94920.78;;;10.65;46.16
45129;BME280;35512;56.312;101.728;2023-05-12T10:10:02;94922.72;;;10.65;46.27
45129;BME280;35512;56.312;101.728;2023-05-12T10:12:33;94921.53;;;10.66;46.28
45129;BME280;35512;56.312;101.728;2023-05-12T10:15:03;94911.94;;;10.61;46.37
45129;BME280;35512;56.312;101.728;2023-05-12T10:17:35;94912.75;;;10.58;46.50
45129;BME280;35512;56.312;101.728;2023-05-12T10:20:05;94914.38;;;10.48;46.49
45129;BME280;35512;56.312;101.728;2023-05-12T10:22:37;94918.25;;;10.44;46.69
45129;BME280;35512;56.312;101.728;2023-05-12T10:25:07;94917.91;;;10.38;46.89
45129;BME280;35512;56.312;101.728;2023-05-12T10:27:37;94918.34;;;10.26;46.77
45129;BME280;35512;56.312;101.728;2023-05-12T10:30:07;94918.44;;;10.15;47.08
45129;BME280;35512;56.312;101.728;2023-05-12T10:32:37;94924.25;;;10.10;47.15
45129;BME280;35512;56.312;101.728;2023-05-12T10:35:10;94924.69;;;10.01;47.32
45129;BME280;35512;56.312;101.728;2023-05-12T10:37:41;94925.16;;;9.89;47.60
45129;BME280;35512;56.312;101.728;2023-05-12T10:40:21;94929.41;;;9.86;47.89
45129;BME280;35512;56.312;101.728;2023-05-12T10:42:50;94932.16;;;9.79;47.87
45129;BME280;35512;56.312;101.728;2023-05-12T10:45:22;94931.41;;;9.71;48.31
45129;BME280;35512;56.312;101.728;2023-05-12T10:47:51;94931.41;;;9.68;47.83
45129;BME280;35512;56.312;101.728;2023-05-12T10:50:27;94933.34;;;9.63;48.49
45129;BME280;35512;56.312;101.728;2023-05-12T10:52:56;94933.00;;;9.61;48.48
45129;BME280;35512;56.312;101.728;2023-05-12T10:55:41;94929.16;;;9.55;48.61
45129;BME280;35512;56.312;101.728;2023-05-12T10:58:11;94934.19;;;9.53;48.94
45129;BME280;35512;56.312;101.728;2023-05-12T11:00:44;94936.50;;;9.51;48.93
45129;BME280;35512;56.312;101.728;2023-05-12T11:03:16;94942.28;;;9.50;48.75
45129;BME280;35512;56.312;101.728;2023-05-12T11:06:00;94943.81;;;9.47;48.90
45129;BME280;35512;56.312;101.728;2023-05-12T11:08:35;94939.22;;;9.47;49.16
45129;BME280;35512;56.312;101.728;2023-05-12T11:11:05;94943.44;;;9.48;49.12
45129;BME280;35512;56.312;101.728;2023-05-12T11:13:36;94934.19;;;9.46;49.55
45129;BME280;35512;56.312;101.728;2023-05-12T11:16:05;94941.13;;;9.51;49.47
45129;BME280;35512;56.312;101.728;2023-05-12T11:18:34;94951.13;;;9.54;49.35
45129;BME280;35512;56.312;101.728;2023-05-12T11:21:10;94949.16;;;9.54;49.25
45129;BME280;35512;56.312;101.728;2023-05-12T11:23:39;94952.25;;;9.53;49.45
45129;BME280;35512;56.312;101.728;2023-05-12T11:26:16;94950.75;;;9.48;49.93
45129;BME280;35512;56.312;101.728;2023-05-12T11:28:45;94957.69;;;9.42;50.04
45129;BME280;35512;56.312;101.728;2023-05-12T11:31:18;94948.53;;;9.25;50.36
45129;BME280;35512;56.312;101.728;2023-05-12T11:33:48;94944.69;;;9.15;50.53
45129;BME280;35512;56.312;101.728;2023-05-12T11:36:38;94955.47;;;9.08;50.76
45129;BME280;35512;56.312;101.728;2023-05-12T11:39:37;94955.09;;;9.06;50.66
45129;BME280;35512;56.312;101.728;2023-05-12T11:42:07;94963.97;;;9.03;51.05
45129;BME280;35512;56.312;101.728;2023-05-12T11:44:47;94965.13;;;8.91;52.08
45129;BME280;35512;56.312;101.728;2023-05-12T11:47:18;94968.59;;;8.77;51.89
45129;BME280;35512;56.312;101.728;2023-05-12T11:49:54;94959.38;;;8.63;52.64
45129;BME280;35512;56.312;101.728;2023-05-12T11:52:23;94960.56;;;8.59;53.16
45129;BME280;35512;56.312;101.728;2023-05-12T11:54:58;94962.84;;;8.64;52.61
45129;BME280;35512;56.312;101.728;2023-05-12T11:57:34;94966.69;;;8.59;52.99
45129;BME280;35512;56.312;101.728;2023-05-12T12:00:07;94962.09;;;8.56;53.64
45129;BME280;35512;56.312;101.728;2023-05-12T12:02:37;94974.00;;;8.55;54.08
45129;BME280;35512;56.312;101.728;2023-05-12T12:05:17;94971.69;;;8.54;54.54
45129;BME280;35512;56.312;101.728;2023-05-12T12:07:46;94969.75;;;8.51;54.38
45129;BME280;35512;56.312;101.728;2023-05-12T12:10:17;94968.97;;;8.46;54.21
45129;BME280;35512;56.312;101.728;2023-05-12T12:12:46;94968.97;;;8.43;54.74
45129;BME280;35512;56.312;101.728;2023-05-12T12:15:15;94985.09;;;8.43;54.84
45129;BME280;35512;56.312;101.728;2023-05-12T12:17:44;94994.72;;;8.40;55.84
45129;BME280;35512;56.312;101.728;2023-05-12T12:20:14;94997.00;;;8.35;55.63
45129;BME280;35512;56.312;101.728;2023-05-12T12:22:47;94993.91;;;8.22;55.75
45129;BME280;35512;56.312;101.728;2023-05-12T12:25:16;95003.13;;;8.21;55.65
45129;BME280;35512;56.312;101.728;2023-05-12T12:27:48;95000.03;;;8.08;56.38
45129;BME280;35512;56.312;101.728;2023-05-12T12:30:17;95004.25;;;8.09;56.55
45129;BME280;35512;56.312;101.728;2023-05-12T12:32:46;95000.78;;;7.98;57.34
45129;BME280;35512;56.312;101.728;2023-05-12T12:35:15;95008.41;;;7.88;56.97
45129;BME280;35512;56.312;101.728;2023-05-12T12:37:45;95018.78;;;7.90;57.08
45129;BME280;35512;56.312;101.728;2023-05-12T12:40:19;95023.00;;;7.87;56.69
45129;BME280;35512;56.312;101.728;2023-05-12T12:42:48;95022.59;;;7.85;56.64
45129;BME280;35512;56.312;101.728;2023-05-12T12:45:17;95018.34;;;7.73;57.22
45129;BME280;35512;56.312;101.728;2023-05-12T12:47:47;95033.72;;;7.76;57.42
45129;BME280;35512;56.312;101.728;2023-05-12T12:50:19;95038.31;;;7.76;56.87
45129;BME280;35512;56.312;101.728;2023-05-12T12:52:48;95042.91;;;7.75;56.80
45129;BME280;35512;56.312;101.728;2023-05-12T12:55:19;95051.38;;;7.77;56.86
45129;BME280;35512;56.312;101.728;2023-05-12T12:57:48;95045.63;;;7.79;57.16
45129;BME280;35512;56.312;101.728;2023-05-12T13:00:18;95032.16;;;7.75;56.43
45129;BME280;35512;56.312;101.728;2023-05-12T13:02:48;95036.78;;;7.75;56.23
45129;BME280;35512;56.312;101.728;2023-05-12T13:05:18;95046.38;;;7.76;56.36